createdAt,value
2022-08-25T00:00:39.688Z,19.43
2022-08-25T00:01:39.641Z,19.50
2022-08-25T00:02:39.733Z,19.41
2022-08-25T00:03:39.662Z,19.40
2022-08-25T00:04:39.650Z,19.46
2022-08-25T00:05:39.642Z,19.40
2022-08-25T00:06:39.611Z,19.46
2022-08-25T00:07:39.596Z,19.41
2022-08-25T00:08:39.593Z,19.39
2022-08-25T00:09:39.595Z,19.40
2022-08-25T00:10:39.572Z,19.23
2022-08-25T00:11:39.550Z,19.22
2022-08-25T00:12:39.553Z,19.04
2022-08-25T00:13:39.551Z,19.06
2022-08-25T00:14:39.528Z,18.94
2022-08-25T00:15:39.569Z,19.07
2022-08-25T00:16:39.513Z,19.06
2022-08-25T00:17:39.502Z,19.06
2022-08-25T00:18:39.512Z,19.19
2022-08-25T00:19:39.490Z,19.13
2022-08-25T00:20:39.477Z,19.21
2022-08-25T00:21:39.463Z,19.19
2022-08-25T00:22:39.445Z,19.25
2022-08-25T00:23:39.440Z,19.25
2022-08-25T00:24:39.457Z,19.22
2022-08-25T00:25:39.418Z,19.14
2022-08-25T00:26:39.410Z,19.10
2022-08-25T00:27:39.439Z,19.13
2022-08-25T00:28:39.397Z,19.19
2022-08-25T00:29:39.371Z,19.19
2022-08-25T00:30:39.376Z,19.22
2022-08-25T00:31:39.417Z,19.19
2022-08-25T00:32:39.383Z,19.19
2022-08-25T00:33:39.371Z,19.23
2022-08-25T00:34:39.359Z,19.14
2022-08-25T00:35:39.331Z,19.10
2022-08-25T00:36:39.312Z,19.18
2022-08-25T00:37:39.304Z,19.08
2022-08-25T00:38:39.290Z,19.10
2022-08-25T00:39:39.303Z,19.22
2022-08-25T00:40:39.271Z,19.13
2022-08-25T00:41:39.287Z,19.08
2022-08-25T00:42:39.268Z,19.07
2022-08-25T00:43:39.249Z,18.94
2022-08-25T00:44:39.235Z,18.85
2022-08-25T00:45:39.229Z,18.84
2022-08-25T00:46:39.281Z,18.84
2022-08-25T00:47:39.222Z,18.75
2022-08-25T00:48:39.199Z,18.72
2022-08-25T00:49:39.180Z,18.75
2022-08-25T00:50:39.201Z,18.62
2022-08-25T00:51:39.188Z,18.54
2022-08-25T00:52:39.149Z,18.44
2022-08-25T00:53:39.149Z,18.42
2022-08-25T00:54:39.136Z,18.33
2022-08-25T00:55:39.145Z,18.33
2022-08-25T00:56:39.123Z,18.35
2022-08-25T00:57:39.124Z,18.36
2022-08-25T00:58:39.090Z,18.47
2022-08-25T00:59:39.125Z,18.51
2022-08-25T01:00:40.070Z,18.44
2022-08-25T01:01:39.152Z,18.41
2022-08-25T01:02:39.153Z,18.37
2022-08-25T01:03:39.051Z,18.41
2022-08-25T01:04:39.026Z,18.35
2022-08-25T01:05:39.056Z,18.35
2022-08-25T01:06:39.014Z,18.30
2022-08-25T01:08:10.908Z,18.20
2022-08-25T01:08:39.010Z,18.15
2022-08-25T01:09:38.994Z,18.21
2022-08-25T01:10:39.020Z,18.27
2022-08-25T01:11:38.986Z,18.12
2022-08-25T01:12:38.973Z,18.14
2022-08-25T01:13:38.982Z,18.10
2022-08-25T01:14:38.991Z,17.96
2022-08-25T01:15:38.988Z,17.97
2022-08-25T01:16:38.936Z,17.95
2022-08-25T01:17:38.928Z,17.96
2022-08-25T01:18:38.950Z,17.89
2022-08-25T01:19:38.900Z,17.92
2022-08-25T01:20:38.889Z,17.96
2022-08-25T01:21:38.894Z,17.87
2022-08-25T01:22:38.870Z,17.75
2022-08-25T01:23:38.890Z,17.70
2022-08-25T01:24:38.845Z,17.87
2022-08-25T01:25:38.842Z,17.78
2022-08-25T01:26:38.826Z,17.82
2022-08-25T01:27:38.822Z,17.84
2022-08-25T01:28:38.801Z,17.93
2022-08-25T01:29:38.818Z,17.79
2022-08-25T01:30:38.854Z,17.75
2022-08-25T01:31:38.802Z,17.95
2022-08-25T01:32:38.763Z,17.71
2022-08-25T01:33:38.781Z,17.71
2022-08-25T01:34:38.777Z,17.70
2022-08-25T01:35:38.745Z,17.79
2022-08-25T01:36:38.730Z,17.79
2022-08-25T01:37:38.719Z,17.68
2022-08-25T01:38:38.711Z,17.71
2022-08-25T01:39:38.724Z,17.74
2022-08-25T01:40:39.713Z,17.63
2022-08-25T01:41:38.712Z,17.68
2022-08-25T01:42:38.761Z,17.62
2022-08-25T01:43:38.677Z,17.58
2022-08-25T01:44:38.652Z,17.51
2022-08-25T01:45:38.646Z,17.64
2022-08-25T01:46:38.688Z,17.62
2022-08-25T01:47:38.648Z,17.66
2022-08-25T01:48:38.618Z,17.70
2022-08-25T01:49:38.607Z,17.72
2022-08-25T01:50:38.597Z,17.75
2022-08-25T01:51:38.613Z,17.75
2022-08-25T01:52:38.625Z,17.70
2022-08-25T01:53:38.580Z,17.84
2022-08-25T01:54:38.558Z,17.81
2022-08-25T01:55:38.559Z,17.78
2022-08-25T01:56:38.551Z,17.75
2022-08-25T01:57:38.563Z,17.64
2022-08-25T01:58:38.525Z,17.71
2022-08-25T01:59:38.516Z,17.72
2022-08-25T02:00:38.510Z,17.64
2022-08-25T02:01:38.602Z,17.81
2022-08-25T02:02:38.590Z,17.79
2022-08-25T02:03:38.505Z,17.90
2022-08-25T02:04:38.467Z,17.93
2022-08-25T02:05:38.478Z,17.87
2022-08-25T02:06:38.451Z,17.79
2022-08-25T02:07:38.451Z,17.58
2022-08-25T02:08:38.456Z,17.49
2022-08-25T02:09:38.406Z,17.51
2022-08-25T02:10:38.432Z,17.49
2022-08-25T02:11:38.403Z,17.41
2022-08-25T02:12:38.413Z,17.40
2022-08-25T02:13:38.397Z,17.41
2022-08-25T02:14:38.378Z,17.46
2022-08-25T02:15:38.376Z,17.40
2022-08-25T02:16:38.421Z,17.49
2022-08-25T02:17:38.347Z,17.46
2022-08-25T02:18:38.334Z,17.46
2022-08-25T02:19:38.340Z,17.37
2022-08-25T02:20:38.306Z,17.43
2022-08-25T02:21:38.293Z,17.37
2022-08-25T02:22:38.332Z,17.26
2022-08-25T02:23:38.291Z,17.23
2022-08-25T02:24:38.270Z,17.18
2022-08-25T02:25:38.256Z,17.22
2022-08-25T02:26:38.246Z,17.15
2022-08-25T02:27:38.262Z,17.15
2022-08-25T02:28:38.227Z,17.15
2022-08-25T02:29:38.204Z,17.19
2022-08-25T02:30:38.256Z,17.18
2022-08-25T02:31:38.202Z,17.28
2022-08-25T02:32:38.182Z,17.40
2022-08-25T02:33:38.197Z,17.43
2022-08-25T02:34:38.167Z,17.43
2022-08-25T02:35:38.149Z,17.51
2022-08-25T02:36:38.162Z,17.48
2022-08-25T02:37:38.135Z,17.51
2022-08-25T02:38:38.128Z,17.52
2022-08-25T02:39:38.123Z,17.40
2022-08-25T02:40:38.140Z,17.33
2022-08-25T02:41:38.091Z,17.30
2022-08-25T02:42:38.122Z,17.22
2022-08-25T02:43:38.087Z,17.23
2022-08-25T02:44:38.068Z,17.26
2022-08-25T02:45:38.089Z,17.11
2022-08-25T02:46:38.080Z,17.23
2022-08-25T02:47:38.039Z,17.21
2022-08-25T02:48:38.065Z,17.25
2022-08-25T02:49:38.019Z,17.21
2022-08-25T02:50:38.011Z,17.23
2022-08-25T02:51:38.024Z,17.21
2022-08-25T02:52:37.994Z,17.16
2022-08-25T02:53:37.984Z,17.25
2022-08-25T02:54:38.005Z,17.19
2022-08-25T02:55:37.958Z,17.11
2022-08-25T02:56:37.978Z,17.08
2022-08-25T02:57:37.933Z,17.21
2022-08-25T02:58:37.947Z,17.33
2022-08-25T02:59:37.916Z,17.21
2022-08-25T03:00:37.917Z,17.25
2022-08-25T03:01:37.969Z,17.15
2022-08-25T03:02:37.888Z,17.12
2022-08-25T03:03:39.488Z,17.06
2022-08-25T03:04:38.945Z,17.07
2022-08-25T03:05:37.856Z,17.01
2022-08-25T03:06:37.856Z,17.00
2022-08-25T03:07:37.851Z,16.94
2022-08-25T03:08:37.839Z,17.00
2022-08-25T03:09:38.285Z,17.03
2022-08-25T03:10:37.814Z,17.04
2022-08-25T03:11:37.806Z,17.11
2022-08-25T03:12:37.821Z,17.14
2022-08-25T03:13:37.782Z,17.12
2022-08-25T03:14:37.803Z,17.15
2022-08-25T03:15:37.765Z,17.15
2022-08-25T03:16:37.799Z,17.21
2022-08-25T03:17:37.741Z,17.22
2022-08-25T03:18:37.748Z,17.18
2022-08-25T03:19:37.745Z,17.16
2022-08-25T03:20:37.742Z,17.16
2022-08-25T03:21:37.702Z,17.23
2022-08-25T03:22:37.701Z,17.31
2022-08-25T03:23:37.685Z,17.26
2022-08-25T03:24:38.710Z,17.36
2022-08-25T03:25:37.670Z,17.31
2022-08-25T03:26:37.686Z,17.36
2022-08-25T03:27:37.641Z,17.37
2022-08-25T03:28:37.645Z,17.43
2022-08-25T03:29:37.627Z,17.44
2022-08-25T03:30:37.607Z,17.43
2022-08-25T03:31:37.683Z,17.48
2022-08-25T03:32:37.596Z,17.46
2022-08-25T03:33:37.585Z,17.43
2022-08-25T03:34:37.580Z,17.34
2022-08-25T03:35:37.575Z,17.46
2022-08-25T03:36:37.573Z,17.41
2022-08-25T03:37:37.574Z,17.41
2022-08-25T03:38:37.550Z,17.49
2022-08-25T03:39:37.519Z,17.38
2022-08-25T03:40:37.520Z,17.33
2022-08-25T03:41:37.508Z,17.31
2022-08-25T03:42:41.318Z,17.21
2022-08-25T03:43:37.494Z,17.16
2022-08-25T03:44:37.485Z,17.01
2022-08-25T03:45:37.515Z,16.98
2022-08-25T03:46:37.463Z,17.04
2022-08-25T03:47:37.476Z,16.93
2022-08-25T03:48:37.439Z,16.96
2022-08-25T03:49:37.448Z,16.86
2022-08-25T03:50:37.419Z,17.03
2022-08-25T03:51:37.397Z,16.91
2022-08-25T03:52:41.811Z,16.83
2022-08-25T03:53:38.401Z,16.86
2022-08-25T03:54:37.397Z,16.97
2022-08-25T03:55:37.375Z,16.93
2022-08-25T03:56:37.351Z,16.96
2022-08-25T03:57:37.347Z,17.06
2022-08-25T03:58:37.350Z,16.88
2022-08-25T03:59:37.333Z,16.96
2022-08-25T04:00:37.319Z,16.85
2022-08-25T04:01:37.379Z,16.98
2022-08-25T04:02:37.346Z,16.97
2022-08-25T04:03:37.310Z,16.91
2022-08-25T04:04:37.282Z,16.91
2022-08-25T04:05:37.279Z,16.91
2022-08-25T04:06:37.289Z,16.83
2022-08-25T04:07:37.246Z,16.88
2022-08-25T04:08:37.235Z,16.81
2022-08-25T04:09:37.217Z,16.86
2022-08-25T04:10:37.223Z,16.81
2022-08-25T04:11:37.237Z,16.81
2022-08-25T04:12:37.223Z,16.68
2022-08-25T04:13:37.197Z,16.56
2022-08-25T04:14:37.176Z,16.58
2022-08-25T04:15:37.183Z,16.48
2022-08-25T04:16:37.206Z,16.53
2022-08-25T04:17:37.144Z,16.56
2022-08-25T04:18:37.141Z,16.48
2022-08-25T04:19:37.134Z,16.57
2022-08-25T04:20:37.140Z,16.53
2022-08-25T04:21:37.107Z,16.63
2022-08-25T04:22:37.101Z,16.67
2022-08-25T04:23:37.124Z,16.81
2022-08-25T04:24:37.077Z,16.86
2022-08-25T04:25:37.074Z,16.79
2022-08-25T04:26:37.055Z,16.83
2022-08-25T04:27:37.051Z,16.78
2022-08-25T04:28:37.055Z,16.89
2022-08-25T04:29:37.022Z,16.83
2022-08-25T04:30:37.014Z,16.76
2022-08-25T04:31:37.071Z,16.83
2022-08-25T04:32:37.012Z,16.83
2022-08-25T04:33:36.986Z,16.89
2022-08-25T04:34:37.008Z,16.78
2022-08-25T04:35:36.967Z,16.76
2022-08-25T04:36:36.992Z,16.67
2022-08-25T04:37:36.947Z,16.63
2022-08-25T04:38:36.943Z,16.73
2022-08-25T04:39:36.929Z,16.81
2022-08-25T04:40:36.950Z,16.75
2022-08-25T04:41:36.937Z,16.78
2022-08-25T04:42:36.905Z,16.73
2022-08-25T04:43:36.889Z,16.75
2022-08-25T04:44:36.922Z,16.82
2022-08-25T04:45:36.910Z,16.81
2022-08-25T04:46:36.859Z,16.86
2022-08-25T04:47:36.857Z,16.86
2022-08-25T04:48:36.839Z,16.93
2022-08-25T04:49:36.837Z,16.89
2022-08-25T04:50:36.872Z,16.83
2022-08-25T04:51:36.813Z,16.79
2022-08-25T04:52:36.804Z,16.71
2022-08-25T04:53:36.799Z,16.93
2022-08-25T04:54:37.141Z,17.31
2022-08-25T04:55:36.771Z,17.81
2022-08-25T04:56:36.786Z,18.14
2022-08-25T04:57:36.753Z,18.44
2022-08-25T04:58:36.776Z,18.92
2022-08-25T04:59:36.734Z,19.25
2022-08-25T05:00:36.758Z,19.56
2022-08-25T05:01:36.744Z,19.65
2022-08-25T05:02:36.712Z,19.86
2022-08-25T05:03:36.693Z,19.99
2022-08-25T05:04:36.728Z,20.23
2022-08-25T05:05:36.687Z,20.18
2022-08-25T05:06:36.684Z,20.50
2022-08-25T05:07:36.683Z,20.85
2022-08-25T05:08:36.641Z,21.27
2022-08-25T05:09:36.632Z,21.58
2022-08-25T05:10:36.664Z,21.59
2022-08-25T05:11:36.628Z,21.67
2022-08-25T05:12:36.669Z,21.58
2022-08-25T05:13:36.648Z,21.80
2022-08-25T05:14:36.615Z,22.05
2022-08-25T05:15:36.615Z,22.27
2022-08-25T05:16:36.626Z,22.24
2022-08-25T05:17:36.586Z,22.47
2022-08-25T05:18:36.594Z,22.36
2022-08-25T05:19:36.611Z,22.54
2022-08-25T05:20:36.564Z,22.86
2022-08-25T05:21:36.595Z,22.98
2022-08-25T05:22:36.560Z,22.79
2022-08-25T05:23:36.533Z,23.10
2022-08-25T05:24:36.526Z,22.62
2022-08-25T05:25:36.539Z,22.77
2022-08-25T05:26:36.515Z,22.79
2022-08-25T05:27:36.495Z,22.68
2022-08-25T05:28:36.485Z,22.77
2022-08-25T05:29:36.453Z,22.91
2022-08-25T05:30:36.470Z,22.91
2022-08-25T05:31:41.721Z,22.94
2022-08-25T05:32:38.436Z,22.95
2022-08-25T05:33:36.410Z,23.07
2022-08-25T05:34:36.413Z,23.10
2022-08-25T05:35:36.409Z,23.16
2022-08-25T05:36:36.404Z,23.16
2022-08-25T05:37:36.440Z,23.32
2022-08-25T05:38:36.369Z,23.28
2022-08-25T05:39:36.416Z,23.27
2022-08-25T05:40:36.372Z,23.51
2022-08-25T05:41:36.355Z,23.78
2022-08-25T05:42:36.364Z,24.18
2022-08-25T05:43:36.336Z,24.27
2022-08-25T05:44:36.340Z,24.28
2022-08-25T05:45:36.358Z,24.49
2022-08-25T05:46:36.346Z,24.57
2022-08-25T05:47:36.307Z,24.78
2022-08-25T05:48:36.305Z,24.98
2022-08-25T05:49:36.336Z,25.14
2022-08-25T05:50:36.294Z,25.18
2022-08-25T05:51:36.266Z,25.36
2022-08-25T05:52:36.249Z,25.32
2022-08-25T05:53:36.266Z,25.18
2022-08-25T05:54:36.224Z,24.65
2022-08-25T05:55:36.303Z,24.55
2022-08-25T05:56:36.249Z,24.39
2022-08-25T05:57:38.054Z,24.40
2022-08-25T05:58:36.172Z,24.39
2022-08-25T05:59:36.172Z,24.18
2022-08-25T06:00:36.178Z,24.15
2022-08-25T06:01:36.137Z,24.09
2022-08-25T06:02:36.147Z,24.16
2022-08-25T06:03:36.147Z,24.18
2022-08-25T06:04:39.556Z,24.49
2022-08-25T06:05:38.093Z,24.03
2022-08-25T06:06:36.113Z,24.16
2022-08-25T06:07:36.461Z,24.16
2022-08-25T06:08:37.064Z,24.37
2022-08-25T06:09:36.073Z,24.20
2022-08-25T06:10:37.147Z,24.87
2022-08-25T06:11:36.045Z,24.91
2022-08-25T06:12:36.566Z,24.88
2022-08-25T06:13:36.030Z,24.84
2022-08-25T06:14:36.050Z,25.17
2022-08-25T06:15:36.012Z,25.64
2022-08-25T06:16:36.047Z,25.95
2022-08-25T06:17:35.989Z,25.83
2022-08-25T06:18:35.985Z,26.33
2022-08-25T06:19:37.119Z,26.60
2022-08-25T06:20:36.963Z,26.72
2022-08-25T06:21:35.955Z,26.70
2022-08-25T06:22:35.971Z,26.65
2022-08-25T06:23:35.944Z,26.57
2022-08-25T06:24:35.934Z,26.54
2022-08-25T06:25:35.919Z,26.85
2022-08-25T06:26:35.936Z,26.82
2022-08-25T06:27:35.894Z,26.73
2022-08-25T06:28:35.888Z,27.13
2022-08-25T06:29:35.874Z,27.34
2022-08-25T06:30:35.859Z,27.50
2022-08-25T06:31:35.993Z,27.54
2022-08-25T06:32:35.895Z,27.78
2022-08-25T06:33:35.845Z,27.69
2022-08-25T06:34:35.844Z,28.04
2022-08-25T06:35:35.852Z,28.11
2022-08-25T06:36:35.804Z,28.04
2022-08-25T06:37:35.799Z,28.19
2022-08-25T06:38:35.823Z,28.37
2022-08-25T06:39:35.785Z,28.36
2022-08-25T06:40:35.798Z,28.48
2022-08-25T06:41:36.997Z,28.71
2022-08-25T06:42:35.753Z,28.73
2022-08-25T06:43:35.759Z,28.76
2022-08-25T06:44:35.768Z,28.81
2022-08-25T06:45:35.767Z,28.83
2022-08-25T06:46:37.107Z,28.68
2022-08-25T06:47:35.718Z,28.59
2022-08-25T06:48:35.701Z,28.58
2022-08-25T06:49:36.350Z,28.67
2022-08-25T06:50:36.695Z,28.80
2022-08-25T06:51:35.691Z,28.88
2022-08-25T06:52:35.676Z,28.96
2022-08-25T06:53:35.654Z,29.06
2022-08-25T06:54:35.682Z,29.04
2022-08-25T06:55:35.639Z,28.81
2022-08-25T06:56:35.635Z,28.95
2022-08-25T06:57:35.643Z,28.54
2022-08-25T06:58:35.612Z,28.68
2022-08-25T06:59:35.648Z,28.68
2022-08-25T07:00:35.707Z,28.89
2022-08-25T07:01:35.689Z,29.18
2022-08-25T07:02:35.690Z,29.21
2022-08-25T07:03:35.579Z,29.42
2022-08-25T07:04:35.570Z,29.70
2022-08-25T07:05:43.603Z,30.05
2022-08-25T07:06:36.549Z,29.94
2022-08-25T07:08:07.429Z,29.71
2022-08-25T07:08:35.517Z,29.82
2022-08-25T07:09:39.032Z,30.02
2022-08-25T07:10:36.730Z,29.83
2022-08-25T07:11:35.518Z,29.71
2022-08-25T07:12:35.476Z,30.05
2022-08-25T07:13:35.486Z,30.34
2022-08-25T07:14:35.448Z,30.43
2022-08-25T07:15:36.452Z,30.13
2022-08-25T07:16:35.461Z,30.08
2022-08-25T07:17:35.451Z,30.16
2022-08-25T07:18:36.469Z,30.47
2022-08-25T07:19:35.454Z,30.45
2022-08-25T07:20:35.411Z,30.29
2022-08-25T07:21:35.900Z,30.02
2022-08-25T07:22:36.085Z,29.92
2022-08-25T07:23:35.384Z,29.82
2022-08-25T07:24:35.409Z,29.74
2022-08-25T07:25:35.371Z,29.65
2022-08-25T07:26:38.214Z,29.73
2022-08-25T07:27:36.347Z,29.53
2022-08-25T07:28:35.352Z,29.55
2022-08-25T07:29:35.341Z,29.83
2022-08-25T07:30:36.353Z,29.89
2022-08-25T07:31:35.386Z,29.92
2022-08-25T07:32:35.317Z,30.24
2022-08-25T07:33:35.306Z,29.85
2022-08-25T07:34:35.283Z,29.95
2022-08-25T07:35:37.395Z,30.11
2022-08-25T07:36:35.277Z,30.19
2022-08-25T07:37:50.204Z,30.20
2022-08-25T07:38:37.496Z,30.05
2022-08-25T07:39:35.241Z,29.98
2022-08-25T07:40:36.197Z,30.65
2022-08-25T07:41:35.228Z,31.14
2022-08-25T07:42:35.243Z,31.50
2022-08-25T07:43:35.219Z,31.56
2022-08-25T07:44:35.204Z,31.62
2022-08-25T07:45:35.223Z,31.76
2022-08-25T07:46:35.230Z,32.14
2022-08-25T07:47:35.181Z,32.43
2022-08-25T07:48:35.164Z,32.29
2022-08-25T07:49:36.196Z,32.04
2022-08-25T07:50:35.168Z,32.30
2022-08-25T07:51:35.136Z,32.56
2022-08-25T07:52:35.123Z,32.38
2022-08-25T07:53:35.120Z,32.37
2022-08-25T07:54:35.596Z,32.18
2022-08-25T07:55:35.153Z,32.35
2022-08-25T07:56:35.086Z,32.45
2022-08-25T07:57:35.071Z,32.45
2022-08-25T07:58:35.069Z,32.63
2022-08-25T07:59:39.283Z,32.78
2022-08-25T08:00:35.989Z,32.45
2022-08-25T08:01:35.122Z,32.38
2022-08-25T08:02:35.062Z,32.57
2022-08-25T08:03:50.047Z,32.19
2022-08-25T08:04:36.025Z,32.07
2022-08-25T08:05:35.658Z,32.07
2022-08-25T08:06:34.999Z,32.06
2022-08-25T08:07:42.147Z,32.51
2022-08-25T08:08:35.970Z,32.60
2022-08-25T08:09:34.964Z,32.59
2022-08-25T08:10:54.203Z,32.56
2022-08-25T08:11:36.947Z,32.52
2022-08-25T08:12:34.969Z,32.78
2022-08-25T08:13:39.293Z,32.48
2022-08-25T08:14:36.925Z,32.56
2022-08-25T08:15:35.923Z,32.52
2022-08-25T08:16:34.980Z,32.40
2022-08-25T08:17:34.924Z,32.41
2022-08-25T08:18:34.911Z,32.29
2022-08-25T08:19:34.884Z,32.35
2022-08-25T08:20:42.542Z,31.96
2022-08-25T08:21:34.871Z,32.26
2022-08-25T08:22:34.871Z,32.35
2022-08-25T08:23:34.849Z,32.22
2022-08-25T08:24:44.615Z,32.55
2022-08-25T08:25:35.840Z,32.51
2022-08-25T08:26:55.413Z,32.57
2022-08-25T08:27:36.815Z,32.52
2022-08-25T08:28:34.797Z,32.62
2022-08-25T08:29:34.820Z,32.75
2022-08-25T08:30:35.785Z,32.85
2022-08-25T08:31:34.836Z,33.07
2022-08-25T08:33:05.964Z,33.04
2022-08-25T08:33:40.849Z,33.21
2022-08-25T08:34:34.761Z,32.63
2022-08-25T08:35:34.744Z,32.37
2022-08-25T08:36:34.742Z,32.62
2022-08-25T08:37:34.768Z,33.07
2022-08-25T08:38:34.714Z,33.42
2022-08-25T08:39:34.724Z,33.42
2022-08-25T08:40:34.757Z,33.57
2022-08-25T08:41:54.214Z,33.84
2022-08-25T08:42:34.693Z,34.03
2022-08-25T08:43:34.707Z,34.12
2022-08-25T08:44:34.684Z,34.16
2022-08-25T08:45:35.680Z,34.12
2022-08-25T08:46:34.719Z,34.24
2022-08-25T08:47:34.639Z,34.43
2022-08-25T08:48:34.635Z,34.27
2022-08-25T08:49:34.625Z,34.22
2022-08-25T08:50:34.668Z,34.09
2022-08-25T08:51:34.605Z,34.15
2022-08-25T08:52:34.608Z,33.94
2022-08-25T08:53:35.587Z,33.97
2022-08-25T08:54:34.593Z,34.31
2022-08-25T08:55:34.577Z,34.47
2022-08-25T08:56:34.587Z,34.46
2022-08-25T08:57:34.561Z,34.62
2022-08-25T08:58:34.564Z,34.72
2022-08-25T08:59:34.564Z,34.61
2022-08-25T09:00:34.547Z,34.40
2022-08-25T09:01:34.653Z,34.30
2022-08-25T09:02:39.424Z,33.91
2022-08-25T09:03:36.574Z,33.65
2022-08-25T09:04:34.494Z,33.68
2022-08-25T09:05:38.863Z,33.61
2022-08-25T09:06:36.510Z,33.63
2022-08-25T09:07:34.462Z,33.51
2022-08-25T09:08:34.459Z,33.71
2022-08-25T09:09:35.796Z,33.59
2022-08-25T09:10:34.438Z,33.61
2022-08-25T09:11:34.463Z,33.78
2022-08-25T09:12:34.412Z,34.05
2022-08-25T09:13:34.416Z,34.16
2022-08-25T09:14:34.403Z,34.39
2022-08-25T09:15:41.258Z,34.43
2022-08-25T09:16:34.782Z,34.70
2022-08-25T09:17:34.393Z,34.59
2022-08-25T09:18:37.779Z,34.54
2022-08-25T09:19:34.359Z,34.66
2022-08-25T09:20:34.351Z,34.39
2022-08-25T09:21:34.374Z,34.15
2022-08-25T09:22:36.375Z,34.06
2022-08-25T09:23:34.327Z,34.21
2022-08-25T09:24:34.322Z,33.90
2022-08-25T09:25:52.746Z,33.84
2022-08-25T09:26:36.320Z,33.34
2022-08-25T09:27:34.314Z,32.94
2022-08-25T09:28:34.309Z,33.31
2022-08-25T09:29:34.278Z,33.34
2022-08-25T09:30:34.282Z,33.35
2022-08-25T09:31:34.303Z,32.96
2022-08-25T09:32:34.270Z,32.93
2022-08-25T09:33:35.445Z,33.01
2022-08-25T09:34:34.241Z,33.03
2022-08-25T09:35:34.224Z,33.23
2022-08-25T09:36:37.568Z,33.54
2022-08-25T09:37:35.229Z,33.54
2022-08-25T09:38:34.207Z,33.42
2022-08-25T09:39:34.190Z,33.61
2022-08-25T09:40:34.279Z,33.47
2022-08-25T09:41:34.190Z,33.37
2022-08-25T09:42:34.203Z,33.06
2022-08-25T09:43:34.168Z,32.57
2022-08-25T09:44:34.141Z,32.29
2022-08-25T09:45:34.163Z,32.51
2022-08-25T09:46:34.206Z,32.62
2022-08-25T09:47:34.112Z,32.72
2022-08-25T09:48:37.764Z,32.93
2022-08-25T09:49:36.100Z,33.12
2022-08-25T09:50:34.769Z,33.11
2022-08-25T09:51:42.580Z,32.94
2022-08-25T09:52:34.078Z,32.45
2022-08-25T09:53:34.140Z,32.10
2022-08-25T09:54:44.372Z,31.84
2022-08-25T09:55:35.391Z,31.62
2022-08-25T09:56:34.043Z,31.21
2022-08-25T09:57:34.078Z,31.53
2022-08-25T09:58:34.039Z,31.86
2022-08-25T09:59:34.901Z,31.93
2022-08-25T10:00:34.023Z,31.80
2022-08-25T10:01:34.864Z,31.63
2022-08-25T10:02:33.983Z,31.58
2022-08-25T10:03:36.555Z,31.46
2022-08-25T10:04:33.967Z,31.44
2022-08-25T10:05:34.009Z,31.31
2022-08-25T10:06:33.955Z,31.12
2022-08-25T10:07:33.941Z,30.69
2022-08-25T10:08:33.951Z,30.46
2022-08-25T10:09:33.919Z,30.11
2022-08-25T10:10:34.515Z,30.20
2022-08-25T10:11:33.922Z,30.29
2022-08-25T10:12:33.903Z,30.53
2022-08-25T10:13:33.889Z,30.82
2022-08-25T10:14:33.881Z,31.09
2022-08-25T10:15:33.949Z,30.94
2022-08-25T10:16:35.801Z,30.97
2022-08-25T10:17:34.858Z,31.21
2022-08-25T10:18:33.843Z,31.36
2022-08-25T10:19:33.824Z,31.26
2022-08-25T10:20:35.304Z,31.12
2022-08-25T10:21:33.817Z,31.10
2022-08-25T10:22:33.810Z,31.29
2022-08-25T10:23:33.796Z,31.16
2022-08-25T10:24:33.789Z,31.21
2022-08-25T10:25:33.767Z,31.46
2022-08-25T10:26:35.317Z,31.61
2022-08-25T10:27:34.781Z,31.50
2022-08-25T10:28:33.746Z,31.21
2022-08-25T10:29:33.750Z,31.07
2022-08-25T10:30:33.753Z,30.76
2022-08-25T10:31:34.679Z,30.76
2022-08-25T10:32:33.727Z,30.84
2022-08-25T10:33:33.700Z,31.19
2022-08-25T10:34:35.827Z,31.38
2022-08-25T10:35:33.777Z,31.62
2022-08-25T10:36:33.707Z,31.95
2022-08-25T10:37:33.676Z,32.03
2022-08-25T10:38:36.165Z,31.86
2022-08-25T10:39:36.627Z,31.75
2022-08-25T10:40:33.717Z,31.80
2022-08-25T10:41:33.657Z,31.96
2022-08-25T10:42:33.639Z,31.93
2022-08-25T10:43:33.642Z,31.86
2022-08-25T10:44:33.599Z,32.00
2022-08-25T10:45:34.610Z,31.70
2022-08-25T10:46:33.696Z,31.39
2022-08-25T10:47:33.614Z,31.02
2022-08-25T10:48:33.584Z,30.67
2022-08-25T10:49:33.568Z,30.47
2022-08-25T10:50:33.563Z,30.22
2022-08-25T10:51:33.537Z,30.32
2022-08-25T10:52:33.575Z,30.60
2022-08-25T10:53:33.528Z,30.69
2022-08-25T10:54:33.520Z,30.84
2022-08-25T10:55:33.510Z,30.46
2022-08-25T10:56:34.497Z,29.89
2022-08-25T10:57:33.490Z,29.67
2022-08-25T10:58:34.534Z,29.73
2022-08-25T10:59:33.476Z,30.05
2022-08-25T11:00:33.458Z,30.20
2022-08-25T11:01:40.247Z,30.37
2022-08-25T11:02:34.487Z,30.58
2022-08-25T11:03:35.343Z,30.58
2022-08-25T11:04:33.424Z,30.46
2022-08-25T11:05:33.471Z,30.54
2022-08-25T11:06:33.409Z,30.55
2022-08-25T11:07:33.394Z,30.65
2022-08-25T11:08:33.381Z,30.75
2022-08-25T11:09:33.371Z,30.39
2022-08-25T11:10:33.401Z,30.35
2022-08-25T11:11:35.007Z,30.39
2022-08-25T11:12:33.355Z,30.22
2022-08-25T11:13:33.345Z,30.02
2022-08-25T11:14:34.643Z,29.83
2022-08-25T11:15:34.342Z,29.90
2022-08-25T11:16:33.346Z,29.92
2022-08-25T11:17:33.317Z,30.04
2022-08-25T11:18:33.333Z,30.37
2022-08-25T11:19:33.770Z,30.46
2022-08-25T11:20:33.297Z,30.42
2022-08-25T11:21:34.869Z,30.42
2022-08-25T11:22:33.266Z,30.34
2022-08-25T11:23:33.252Z,30.53
2022-08-25T11:24:33.252Z,30.57
2022-08-25T11:25:33.263Z,30.47
2022-08-25T11:26:36.623Z,29.95
2022-08-25T11:27:34.225Z,29.73
2022-08-25T11:28:33.208Z,29.63
2022-08-25T11:29:33.200Z,29.33
2022-08-25T11:30:33.231Z,29.48
2022-08-25T11:31:33.207Z,29.60
2022-08-25T11:32:33.213Z,29.74
2022-08-25T11:33:33.190Z,29.74
2022-08-25T11:34:33.167Z,29.83
2022-08-25T11:35:33.168Z,29.94
2022-08-25T11:36:33.141Z,29.68
2022-08-25T11:37:33.129Z,29.53
2022-08-25T11:38:33.139Z,29.49
2022-08-25T11:39:33.112Z,29.53
2022-08-25T11:40:34.422Z,29.33
2022-08-25T11:41:34.085Z,29.46
2022-08-25T11:42:33.082Z,29.70
2022-08-25T11:43:35.798Z,29.80
2022-08-25T11:44:33.060Z,29.94
2022-08-25T11:45:33.050Z,30.13
2022-08-25T11:46:33.090Z,30.20
2022-08-25T11:47:33.044Z,30.39
2022-08-25T11:48:34.022Z,30.17
2022-08-25T11:49:33.014Z,30.29
2022-08-25T11:50:33.022Z,30.27
2022-08-25T11:51:33.775Z,30.55
2022-08-25T11:52:32.987Z,30.60
2022-08-25T11:53:32.975Z,30.64
2022-08-25T11:54:32.983Z,30.65
2022-08-25T11:55:32.958Z,30.39
2022-08-25T11:56:32.944Z,30.53
2022-08-25T11:57:32.932Z,30.65
2022-08-25T11:58:32.934Z,30.79
2022-08-25T11:59:32.942Z,30.89
2022-08-25T12:00:32.899Z,31.02
2022-08-25T12:01:32.895Z,30.82
2022-08-25T12:02:32.887Z,30.49
2022-08-25T12:03:32.921Z,30.51
2022-08-25T12:04:33.027Z,30.53
2022-08-25T12:05:32.918Z,30.23
2022-08-25T12:06:32.864Z,29.80
2022-08-25T12:07:32.839Z,29.63
2022-08-25T12:08:32.829Z,29.36
2022-08-25T12:09:32.822Z,29.24
2022-08-25T12:10:32.829Z,29.23
2022-08-25T12:11:32.811Z,29.26
2022-08-25T12:12:32.804Z,29.51
2022-08-25T12:13:32.781Z,29.71
2022-08-25T12:14:32.777Z,29.78
2022-08-25T12:15:32.768Z,29.89
2022-08-25T12:16:32.800Z,29.95
2022-08-25T12:17:32.763Z,30.10
2022-08-25T12:18:32.736Z,30.31
2022-08-25T12:19:32.720Z,30.53
2022-08-25T12:20:32.718Z,30.57
2022-08-25T12:21:32.707Z,30.65
2022-08-25T12:22:32.714Z,30.82
2022-08-25T12:23:32.693Z,30.67
2022-08-25T12:24:32.685Z,30.64
2022-08-25T12:25:33.967Z,30.61
2022-08-25T12:26:32.659Z,30.51
2022-08-25T12:27:33.597Z,30.37
2022-08-25T12:28:35.225Z,30.54
2022-08-25T12:29:32.653Z,30.69
2022-08-25T12:30:32.710Z,30.91
2022-08-25T12:31:32.777Z,30.94
2022-08-25T12:32:32.610Z,31.12
2022-08-25T12:33:32.601Z,31.28
2022-08-25T12:34:32.608Z,31.23
2022-08-25T12:35:32.574Z,31.10
2022-08-25T12:36:33.346Z,31.16
2022-08-25T12:37:32.584Z,31.29
2022-08-25T12:38:32.556Z,31.31
2022-08-25T12:39:32.527Z,31.21
2022-08-25T12:40:32.605Z,31.31
2022-08-25T12:41:33.545Z,31.34
2022-08-25T12:42:32.501Z,31.48
2022-08-25T12:43:33.257Z,31.43
2022-08-25T12:44:33.494Z,31.38
2022-08-25T12:45:32.656Z,31.32
2022-08-25T12:46:32.476Z,31.31
2022-08-25T12:47:32.498Z,31.14
2022-08-25T12:48:32.452Z,31.19
2022-08-25T12:49:32.437Z,31.10
2022-08-25T12:50:32.450Z,30.97
2022-08-25T12:51:32.425Z,30.99
2022-08-25T12:52:32.411Z,31.10